sensor_id;sensor_type;location;lat;lon;timestamp;P1;durP1;ratioP1;P2;durP2;ratioP2
35306;SDS011;21420;52.196;21.416;2023-05-19T07:12:13;6.90;;;4.00;;
35306;SDS011;21420;52.196;21.416;2023-05-19T07:14:40;8.30;;;3.30;;
35306;SDS011;21420;52.196;21.416;2023-05-19T07:17:07;8.20;;;3.80;;
35306;SDS011;21420;52.196;21.416;2023-05-19T07:19:34;8.90;;;3.00;;
35306;SDS011;21420;52.196;21.416;2023-05-19T07:22:02;8.00;;;2.90;;
35306;SDS011;21420;52.196;21.416;2023-05-19T07:24:29;5.90;;;3.00;;
35306;SDS011;21420;52.196;21.416;2023-05-19T07:26:56;7.60;;;3.70;;
35306;SDS011;21420;52.196;21.416;2023-05-19T07:29:23;6.90;;;3.90;;
35306;SDS011;21420;52.196;21.416;2023-05-19T07:31:50;14.00;;;4.40;;
35306;SDS011;21420;52.196;21.416;2023-05-19T07:34:19;6.80;;;4.00;;
35306;SDS011;21420;52.196;21.416;2023-05-19T07:36:47;8.10;;;3.40;;
35306;SDS011;21420;52.196;21.416;2023-05-19T07:39:14;7.80;;;3.30;;
35306;SDS011;21420;52.196;21.416;2023-05-19T07:41:41;7.20;;;3.50;;
35306;SDS011;21420;52.196;21.416;2023-05-19T07:44:07;10.00;;;3.60;;
35306;SDS011;21420;52.196;21.416;2023-05-19T07:46:35;9.20;;;3.30;;
35306;SDS011;21420;52.196;21.416;2023-05-19T07:49:03;10.10;;;3.90;;
35306;SDS011;21420;52.196;21.416;2023-05-19T07:51:30;11.10;;;4.30;;
35306;SDS011;21420;52.196;21.416;2023-05-19T07:53:57;9.10;;;4.00;;
35306;SDS011;21420;52.196;21.416;2023-05-19T07:56:24;11.20;;;4.50;;
35306;SDS011;21420;52.196;21.416;2023-05-19T07:58:50;12.70;;;4.70;;
35306;SDS011;21420;52.196;21.416;2023-05-19T08:01:17;12.50;;;4.10;;
35306;SDS011;21420;52.196;21.416;2023-05-19T08:03:43;8.90;;;4.20;;
35306;SDS011;21420;52.196;21.416;2023-05-19T08:06:10;10.50;;;3.70;;
35306;SDS011;21420;52.196;21.416;2023-05-19T08:08:37;12.50;;;4.50;;
35306;SDS011;21420;52.196;21.416;2023-05-19T08:11:03;12.70;;;4.40;;
35306;SDS011;21420;52.196;21.416;2023-05-19T08:13:30;10.60;;;4.80;;
35306;SDS011;21420;52.196;21.416;2023-05-19T08:15:58;10.60;;;3.80;;
35306;SDS011;21420;52.196;21.416;2023-05-19T08:18:25;8.70;;;5.00;;
35306;SDS011;21420;52.196;21.416;2023-05-19T08:20:52;10.60;;;4.80;;
35306;SDS011;21420;52.196;21.416;2023-05-19T08:23:18;9.30;;;3.90;;
35306;SDS011;21420;52.196;21.416;2023-05-19T08:25:45;8.30;;;3.80;;
35306;SDS011;21420;52.196;21.416;2023-05-19T08:28:12;9.90;;;4.30;;
35306;SDS011;21420;52.196;21.416;2023-05-19T08:30:38;11.30;;;4.40;;
35306;SDS011;21420;52.196;21.416;2023-05-19T08:33:05;10.30;;;4.00;;
35306;SDS011;21420;52.196;21.416;2023-05-19T08:35:32;12.00;;;4.40;;
35306;SDS011;21420;52.196;21.416;2023-05-19T08:37:59;11.90;;;4.30;;
35306;SDS011;21420;52.196;21.416;2023-05-19T08:40:26;9.80;;;4.20;;
35306;SDS011;21420;52.196;21.416;2023-05-19T08:42:56;10.20;;;4.20;;
35306;SDS011;21420;52.196;21.416;2023-05-19T08:45:23;12.00;;;5.10;;
35306;SDS011;21420;52.196;21.416;2023-05-19T08:47:50;9.80;;;4.70;;
35306;SDS011;21420;52.196;21.416;2023-05-19T08:50:19;14.50;;;5.60;;
35306;SDS011;21420;52.196;21.416;2023-05-19T08:52:51;11.50;;;5.70;;
35306;SDS011;21420;52.196;21.416;2023-05-19T08:55:36;13.40;;;5.70;;
35306;SDS011;21420;52.196;21.416;2023-05-19T08:58:12;9.30;;;4.90;;
35306;SDS011;21420;52.196;21.416;2023-05-19T09:00:42;12.50;;;5.20;;
35306;SDS011;21420;52.196;21.416;2023-05-19T09:03:09;10.40;;;4.90;;
35306;SDS011;21420;52.196;21.416;2023-05-19T09:05:42;17.60;;;5.80;;
35306;SDS011;21420;52.196;21.416;2023-05-19T09:08:09;14.40;;;5.30;;
35306;SDS011;21420;52.196;21.416;2023-05-19T09:10:36;12.90;;;5.30;;
35306;SDS011;21420;52.196;21.416;2023-05-19T09:13:04;11.30;;;5.60;;
35306;SDS011;21420;52.196;21.416;2023-05-19T09:15:31;13.50;;;5.30;;
35306;SDS011;21420;52.196;21.416;2023-05-19T09:18:04;13.70;;;5.40;;
35306;SDS011;21420;52.196;21.416;2023-05-19T09:20:36;13.40;;;5.80;;
35306;SDS011;21420;52.196;21.416;2023-05-19T09:23:15;11.80;;;4.90;;
35306;SDS011;21420;52.196;21.416;2023-05-19T09:28:28;12.00;;;5.30;;
35306;SDS011;21420;52.196;21.416;2023-05-19T09:33:26;12.60;;;5.30;;
35306;SDS011;21420;52.196;21.416;2023-05-19T09:35:54;12.90;;;5.10;;
35306;SDS011;21420;52.196;21.416;2023-05-19T09:38:25;8.90;;;5.20;;
35306;SDS011;21420;52.196;21.416;2023-05-19T09:40:54;10.50;;;4.90;;
35306;SDS011;21420;52.196;21.416;2023-05-19T09:43:25;10.20;;;5.20;;
35306;SDS011;21420;52.196;21.416;2023-05-19T09:48:37;10.00;;;4.60;;
35306;SDS011;21420;52.196;21.416;2023-05-19T09:51:04;11.80;;;5.00;;
35306;SDS011;21420;52.196;21.416;2023-05-19T09:53:35;9.10;;;5.10;;
35306;SDS011;21420;52.196;21.416;2023-05-19T09:56:02;9.40;;;4.70;;
35306;SDS011;21420;52.196;21.416;2023-05-19T09:58:30;10.70;;;5.00;;
35306;SDS011;21420;52.196;21.416;2023-05-19T10:01:00;9.80;;;5.30;;
35306;SDS011;21420;52.196;21.416;2023-05-19T10:03:31;11.60;;;4.90;;
35306;SDS011;21420;52.196;21.416;2023-05-19T10:06:08;9.50;;;5.00;;
35306;SDS011;21420;52.196;21.416;2023-05-19T10:08:36;10.40;;;4.80;;
35306;SDS011;21420;52.196;21.416;2023-05-19T10:11:03;10.80;;;5.20;;
35306;SDS011;21420;52.196;21.416;2023-05-19T10:13:30;9.50;;;5.00;;
35306;SDS011;21420;52.196;21.416;2023-05-19T10:16:00;9.70;;;4.70;;
35306;SDS011;21420;52.196;21.416;2023-05-19T10:18:28;11.00;;;5.10;;
35306;SDS011;21420;52.196;21.416;2023-05-19T10:20:56;9.10;;;4.40;;
35306;SDS011;21420;52.196;21.416;2023-05-19T10:23:24;10.70;;;4.40;;
35306;SDS011;21420;52.196;21.416;2023-05-19T10:25:53;10.10;;;4.80;;
35306;SDS011;21420;52.196;21.416;2023-05-19T10:28:24;8.10;;;4.10;;
35306;SDS011;21420;52.196;21.416;2023-05-19T10:30:57;6.90;;;3.70;;
35306;SDS011;21420;52.196;21.416;2023-05-19T10:33:37;7.40;;;4.40;;
35306;SDS011;21420;52.196;21.416;2023-05-19T10:39:03;9.50;;;4.60;;
35306;SDS011;21420;52.196;21.416;2023-05-19T10:41:46;10.10;;;5.00;;
35306;SDS011;21420;52.196;21.416;2023-05-19T10:47:11;8.30;;;4.50;;
35306;SDS011;21420;52.196;21.416;2023-05-19T10:49:39;8.30;;;4.30;;
35306;SDS011;21420;52.196;21.416;2023-05-19T10:52:19;7.90;;;4.50;;
35306;SDS011;21420;52.196;21.416;2023-05-19T10:54:51;7.80;;;4.70;;
35306;SDS011;21420;52.196;21.416;2023-05-19T10:57:27;7.60;;;3.90;;
35306;SDS011;21420;52.196;21.416;2023-05-19T10:59:54;7.20;;;3.90;;
35306;SDS011;21420;52.196;21.416;2023-05-19T11:07:40;9.30;;;4.70;;
35306;SDS011;21420;52.196;21.416;2023-05-19T11:10:09;8.60;;;4.40;;
35306;SDS011;21420;52.196;21.416;2023-05-19T11:12:40;8.90;;;4.70;;
35306;SDS011;21420;52.196;21.416;2023-05-19T11:15:12;7.40;;;4.80;;
35306;SDS011;21420;52.196;21.416;2023-05-19T11:17:41;11.50;;;4.90;;
35306;SDS011;21420;52.196;21.416;2023-05-19T11:20:24;6.40;;;4.30;;
35306;SDS011;21420;52.196;21.416;2023-05-19T11:28:16;7.70;;;4.30;;
35306;SDS011;21420;52.196;21.416;2023-05-19T11:30:46;9.10;;;3.90;;
35306;SDS011;21420;52.196;21.416;2023-05-19T11:33:21;8.70;;;5.00;;
35306;SDS011;21420;52.196;21.416;2023-05-19T11:35:55;6.40;;;4.00;;
35306;SDS011;21420;52.196;21.416;2023-05-19T11:38:26;8.30;;;4.50;;
35306;SDS011;21420;52.196;21.416;2023-05-19T11:40:55;8.10;;;4.60;;
35306;SDS011;21420;52.196;21.416;2023-05-19T11:43:23;7.10;;;4.50;;
35306;SDS011;21420;52.196;21.416;2023-05-19T11:45:51;11.20;;;5.00;;
35306;SDS011;21420;52.196;21.416;2023-05-19T11:48:20;8.40;;;5.30;;
35306;SDS011;21420;52.196;21.416;2023-05-19T11:50:48;8.50;;;4.80;;
35306;SDS011;21420;52.196;21.416;2023-05-19T11:53:15;7.50;;;5.20;;
35306;SDS011;21420;52.196;21.416;2023-05-19T11:55:46;9.30;;;4.70;;
35306;SDS011;21420;52.196;21.416;2023-05-19T11:58:14;11.60;;;5.90;;
35306;SDS011;21420;52.196;21.416;2023-05-19T12:00:42;11.60;;;5.80;;
35306;SDS011;21420;52.196;21.416;2023-05-19T12:03:11;8.90;;;5.00;;
35306;SDS011;21420;52.196;21.416;2023-05-19T12:05:41;8.90;;;4.70;;
35306;SDS011;21420;52.196;21.416;2023-05-19T12:08:14;8.40;;;5.00;;
35306;SDS011;21420;52.196;21.416;2023-05-19T12:10:42;7.80;;;4.70;;
35306;SDS011;21420;52.196;21.416;2023-05-19T12:13:09;9.60;;;5.10;;
35306;SDS011;21420;52.196;21.416;2023-05-19T12:15:36;11.30;;;5.80;;
35306;SDS011;21420;52.196;21.416;2023-05-19T12:18:04;9.40;;;5.30;;
35306;SDS011;21420;52.196;21.416;2023-05-19T12:20:32;9.10;;;5.10;;
35306;SDS011;21420;52.196;21.416;2023-05-19T12:23:02;6.80;;;5.20;;
35306;SDS011;21420;52.196;21.416;2023-05-19T12:25:29;8.10;;;5.00;;
35306;SDS011;21420;52.196;21.416;2023-05-19T12:27:58;9.00;;;5.10;;
35306;SDS011;21420;52.196;21.416;2023-05-19T12:30:26;8.60;;;5.00;;
35306;SDS011;21420;52.196;21.416;2023-05-19T12:32:54;9.20;;;4.90;;
35306;SDS011;21420;52.196;21.416;2023-05-19T12:35:26;9.40;;;5.00;;
35306;SDS011;21420;52.196;21.416;2023-05-19T12:37:56;9.50;;;5.50;;
35306;SDS011;21420;52.196;21.416;2023-05-19T12:40:28;7.20;;;5.20;;
35306;SDS011;21420;52.196;21.416;2023-05-19T12:42:55;9.00;;;5.10;;
35306;SDS011;21420;52.196;21.416;2023-05-19T12:45:25;6.20;;;4.30;;
35306;SDS011;21420;52.196;21.416;2023-05-19T12:47:56;10.20;;;5.40;;
35306;SDS011;21420;52.196;21.416;2023-05-19T12:50:28;7.00;;;4.90;;
35306;SDS011;21420;52.196;21.416;2023-05-19T12:52:59;8.70;;;4.70;;
35306;SDS011;21420;52.196;21.416;2023-05-19T12:55:26;9.40;;;5.70;;
35306;SDS011;21420;52.196;21.416;2023-05-19T12:57:53;9.20;;;4.70;;
35306;SDS011;21420;52.196;21.416;2023-05-19T13:00:23;9.10;;;5.00;;
35306;SDS011;21420;52.196;21.416;2023-05-19T13:05:29;7.70;;;5.00;;
35306;SDS011;21420;52.196;21.416;2023-05-19T13:07:59;7.60;;;5.60;;
35306;SDS011;21420;52.196;21.416;2023-05-19T13:10:30;6.50;;;4.80;;
35306;SDS011;21420;52.196;21.416;2023-05-19T13:12:59;12.80;;;5.70;;
35306;SDS011;21420;52.196;21.416;2023-05-19T13:15:27;9.30;;;5.70;;
35306;SDS011;21420;52.196;21.416;2023-05-19T13:18:00;8.10;;;5.60;;
35306;SDS011;21420;52.196;21.416;2023-05-19T13:20:29;9.70;;;5.10;;
35306;SDS011;21420;52.196;21.416;2023-05-19T13:22:56;7.00;;;5.40;;
35306;SDS011;21420;52.196;21.416;2023-05-19T13:25:23;10.50;;;5.80;;
35306;SDS011;21420;52.196;21.416;2023-05-19T13:27:52;9.10;;;6.00;;
35306;SDS011;21420;52.196;21.416;2023-05-19T13:30:20;8.90;;;5.50;;
35306;SDS011;21420;52.196;21.416;2023-05-19T13:32:47;7.00;;;5.40;;
35306;SDS011;21420;52.196;21.416;2023-05-19T13:35:14;12.50;;;6.00;;
35306;SDS011;21420;52.196;21.416;2023-05-19T13:37:41;7.40;;;5.20;;
35306;SDS011;21420;52.196;21.416;2023-05-19T13:40:08;10.80;;;5.80;;
35306;SDS011;21420;52.196;21.416;2023-05-19T13:42:36;9.90;;;5.60;;
35306;SDS011;21420;52.196;21.416;2023-05-19T13:45:03;8.40;;;5.20;;
35306;SDS011;21420;52.196;21.416;2023-05-19T13:47:30;9.80;;;5.70;;
35306;SDS011;21420;52.196;21.416;2023-05-19T13:49:57;11.90;;;5.90;;
35306;SDS011;21420;52.196;21.416;2023-05-19T13:52:24;8.30;;;5.70;;
35306;SDS011;21420;52.196;21.416;2023-05-19T13:54:55;10.50;;;5.70;;
35306;SDS011;21420;52.196;21.416;2023-05-19T13:57:22;8.40;;;5.60;;
35306;SDS011;21420;52.196;21.416;2023-05-19T13:59:51;9.50;;;5.50;;
35306;SDS011;21420;52.196;21.416;2023-05-19T14:02:37;9.50;;;5.70;;
35306;SDS011;21420;52.196;21.416;2023-05-19T14:05:05;8.40;;;5.10;;
35306;SDS011;21420;52.196;21.416;2023-05-19T14:07:32;9.10;;;5.10;;
35306;SDS011;21420;52.196;21.416;2023-05-19T14:10:01;12.50;;;5.70;;
35306;SDS011;21420;52.196;21.416;2023-05-19T14:12:31;8.90;;;6.10;;
35306;SDS011;21420;52.196;21.416;2023-05-19T14:15:12;7.70;;;4.90;;
35306;SDS011;21420;52.196;21.416;2023-05-19T14:17:39;10.90;;;6.40;;
35306;SDS011;21420;52.196;21.416;2023-05-19T14:20:07;11.00;;;6.50;;
35306;SDS011;21420;52.196;21.416;2023-05-19T14:22:35;14.40;;;6.80;;
35306;SDS011;21420;52.196;21.416;2023-05-19T14:25:02;11.50;;;6.30;;
35306;SDS011;21420;52.196;21.416;2023-05-19T14:27:29;12.30;;;6.30;;
35306;SDS011;21420;52.196;21.416;2023-05-19T14:29:55;12.50;;;7.50;;
35306;SDS011;21420;52.196;21.416;2023-05-19T14:32:22;11.00;;;6.20;;
35306;SDS011;21420;52.196;21.416;2023-05-19T14:34:50;10.50;;;6.80;;
35306;SDS011;21420;52.196;21.416;2023-05-19T14:37:18;12.80;;;7.40;;
35306;SDS011;21420;52.196;21.416;2023-05-19T14:39:46;10.60;;;6.60;;
35306;SDS011;21420;52.196;21.416;2023-05-19T14:42:13;18.20;;;7.80;;
35306;SDS011;21420;52.196;21.416;2023-05-19T14:44:40;11.10;;;5.90;;
35306;SDS011;21420;52.196;21.416;2023-05-19T14:47:07;12.10;;;6.00;;
35306;SDS011;21420;52.196;21.416;2023-05-19T14:49:36;10.30;;;6.50;;
35306;SDS011;21420;52.196;21.416;2023-05-19T14:52:03;9.70;;;6.30;;
35306;SDS011;21420;52.196;21.416;2023-05-19T14:54:30;10.10;;;6.30;;
35306;SDS011;21420;52.196;21.416;2023-05-19T14:56:57;10.50;;;6.60;;
35306;SDS011;21420;52.196;21.416;2023-05-19T14:59:27;17.20;;;9.50;;
35306;SDS011;21420;52.196;21.416;2023-05-19T15:01:55;15.40;;;8.60;;
35306;SDS011;21420;52.196;21.416;2023-05-19T15:04:22;14.30;;;7.80;;
35306;SDS011;21420;52.196;21.416;2023-05-19T15:06:49;12.80;;;7.20;;
35306;SDS011;21420;52.196;21.416;2023-05-19T15:09:35;8.70;;;6.10;;
35306;SDS011;21420;52.196;21.416;2023-05-19T15:12:02;8.70;;;6.30;;
35306;SDS011;21420;52.196;21.416;2023-05-19T15:14:29;13.50;;;7.50;;
35306;SDS011;21420;52.196;21.416;2023-05-19T15:16:57;11.50;;;6.70;;
35306;SDS011;21420;52.196;21.416;2023-05-19T15:19:24;9.40;;;6.40;;
35306;SDS011;21420;52.196;21.416;2023-05-19T15:21:51;9.90;;;6.40;;
35306;SDS011;21420;52.196;21.416;2023-05-19T15:24:19;13.40;;;6.30;;
35306;SDS011;21420;52.196;21.416;2023-05-19T15:26:46;11.40;;;6.80;;
35306;SDS011;21420;52.196;21.416;2023-05-19T15:29:13;13.30;;;8.50;;
35306;SDS011;21420;52.196;21.416;2023-05-19T15:31:39;15.50;;;7.90;;
35306;SDS011;21420;52.196;21.416;2023-05-19T15:34:07;10.50;;;6.90;;
35306;SDS011;21420;52.196;21.416;2023-05-19T15:36:34;10.30;;;6.30;;
35306;SDS011;21420;52.196;21.416;2023-05-19T15:39:00;10.60;;;6.10;;
35306;SDS011;21420;52.196;21.416;2023-05-19T15:41:29;13.30;;;7.90;;
35306;SDS011;21420;52.196;21.416;2023-05-19T15:43:56;12.40;;;7.20;;
35306;SDS011;21420;52.196;21.416;2023-05-19T15:48:53;15.30;;;7.20;;
35306;SDS011;21420;52.196;21.416;2023-05-19T15:51:20;10.90;;;6.70;;
35306;SDS011;21420;52.196;21.416;2023-05-19T15:53:47;11.40;;;6.90;;
35306;SDS011;21420;52.196;21.416;2023-05-19T15:56:14;11.90;;;7.10;;
35306;SDS011;21420;52.196;21.416;2023-05-19T15:58:41;10.50;;;6.10;;
35306;SDS011;21420;52.196;21.416;2023-05-19T16:01:07;10.70;;;6.40;;
35306;SDS011;21420;52.196;21.416;2023-05-19T16:03:35;10.40;;;6.50;;
35306;SDS011;21420;52.196;21.416;2023-05-19T16:06:02;13.70;;;6.30;;
35306;SDS011;21420;52.196;21.416;2023-05-19T16:08:29;11.80;;;6.90;;
35306;SDS011;21420;52.196;21.416;2023-05-19T16:10:56;12.70;;;6.90;;
35306;SDS011;21420;52.196;21.416;2023-05-19T16:13:23;10.20;;;7.30;;
35306;SDS011;21420;52.196;21.416;2023-05-19T16:15:50;10.00;;;6.80;;
35306;SDS011;21420;52.196;21.416;2023-05-19T16:18:18;10.50;;;7.00;;
35306;SDS011;21420;52.196;21.416;2023-05-19T16:20:45;10.80;;;7.00;;
35306;SDS011;21420;52.196;21.416;2023-05-19T16:23:11;10.70;;;7.00;;
35306;SDS011;21420;52.196;21.416;2023-05-19T16:25:38;9.90;;;7.20;;
35306;SDS011;21420;52.196;21.416;2023-05-19T16:28:05;14.30;;;8.30;;
35306;SDS011;21420;52.196;21.416;2023-05-19T16:30:32;11.90;;;7.60;;
35306;SDS011;21420;52.196;21.416;2023-05-19T16:32:59;11.40;;;7.90;;
35306;SDS011;21420;52.196;21.416;2023-05-19T16:35:26;17.70;;;10.00;;
35306;SDS011;21420;52.196;21.416;2023-05-19T16:37:55;42.70;;;30.40;;
35306;SDS011;21420;52.196;21.416;2023-05-19T16:40:24;33.30;;;21.10;;
35306;SDS011;21420;52.196;21.416;2023-05-19T16:42:56;13.70;;;7.40;;
35306;SDS011;21420;52.196;21.416;2023-05-19T16:45:22;13.80;;;10.90;;
35306;SDS011;21420;52.196;21.416;2023-05-19T16:47:51;12.00;;;8.70;;
35306;SDS011;21420;52.196;21.416;2023-05-19T16:50:18;11.70;;;8.40;;
35306;SDS011;21420;52.196;21.416;2023-05-19T16:52:45;16.30;;;11.30;;
35306;SDS011;21420;52.196;21.416;2023-05-19T16:55:12;12.70;;;9.10;;
35306;SDS011;21420;52.196;21.416;2023-05-19T16:57:45;11.90;;;8.40;;
35306;SDS011;21420;52.196;21.416;2023-05-19T17:00:12;10.70;;;7.70;;
35306;SDS011;21420;52.196;21.416;2023-05-19T17:02:40;16.70;;;9.20;;
35306;SDS011;21420;52.196;21.416;2023-05-19T17:05:07;11.40;;;7.90;;
35306;SDS011;21420;52.196;21.416;2023-05-19T17:07:34;13.40;;;8.20;;
35306;SDS011;21420;52.196;21.416;2023-05-19T17:10:01;16.60;;;11.20;;
35306;SDS011;21420;52.196;21.416;2023-05-19T17:12:28;16.90;;;12.40;;
35306;SDS011;21420;52.196;21.416;2023-05-19T17:14:55;25.90;;;19.30;;
35306;SDS011;21420;52.196;21.416;2023-05-19T17:17:22;52.90;;;34.30;;
35306;SDS011;21420;52.196;21.416;2023-05-19T17:19:49;49.90;;;34.80;;
35306;SDS011;21420;52.196;21.416;2023-05-19T17:22:16;65.90;;;41.80;;
35306;SDS011;21420;52.196;21.416;2023-05-19T17:24:42;63.00;;;41.70;;
35306;SDS011;21420;52.196;21.416;2023-05-19T17:27:09;53.90;;;32.30;;
35306;SDS011;21420;52.196;21.416;2023-05-19T17:29:36;37.90;;;25.10;;
35306;SDS011;21420;52.196;21.416;2023-05-19T17:32:03;34.30;;;23.40;;
35306;SDS011;21420;52.196;21.416;2023-05-19T17:34:30;35.00;;;22.00;;
35306;SDS011;21420;52.196;21.416;2023-05-19T17:36:56;37.40;;;24.90;;
35306;SDS011;21420;52.196;21.416;2023-05-19T17:39:23;43.30;;;32.20;;
35306;SDS011;21420;52.196;21.416;2023-05-19T17:41:50;45.00;;;32.60;;
35306;SDS011;21420;52.196;21.416;2023-05-19T17:44:17;44.60;;;30.10;;
35306;SDS011;21420;52.196;21.416;2023-05-19T17:46:43;35.30;;;24.90;;
35306;SDS011;21420;52.196;21.416;2023-05-19T17:49:10;37.70;;;27.60;;
35306;SDS011;21420;52.196;21.416;2023-05-19T17:51:38;39.30;;;25.10;;
35306;SDS011;21420;52.196;21.416;2023-05-19T17:54:05;32.70;;;23.70;;
35306;SDS011;21420;52.196;21.416;2023-05-19T17:56:32;29.30;;;21.60;;
35306;SDS011;21420;52.196;21.416;2023-05-19T17:59:05;20.50;;;16.20;;
35306;SDS011;21420;52.196;21.416;2023-05-19T18:01:32;17.20;;;12.40;;
35306;SDS011;21420;52.196;21.416;2023-05-19T18:03:59;22.90;;;12.80;;
35306;SDS011;21420;52.196;21.416;2023-05-19T18:06:27;22.30;;;14.20;;
35306;SDS011;21420;52.196;21.416;2023-05-19T18:08:54;26.80;;;19.90;;
35306;SDS011;21420;52.196;21.416;2023-05-19T18:11:24;30.60;;;20.10;;
35306;SDS011;21420;52.196;21.416;2023-05-19T18:13:51;23.90;;;16.20;;
35306;SDS011;21420;52.196;21.416;2023-05-19T18:16:18;21.10;;;13.80;;
35306;SDS011;21420;52.196;21.416;2023-05-19T18:18:45;18.60;;;13.50;;
35306;SDS011;21420;52.196;21.416;2023-05-19T18:21:16;18.70;;;13.40;;
35306;SDS011;21420;52.196;21.416;2023-05-19T18:23:44;18.90;;;14.30;;
35306;SDS011;21420;52.196;21.416;2023-05-19T18:26:11;20.90;;;14.60;;
35306;SDS011;21420;52.196;21.416;2023-05-19T18:28:38;21.80;;;17.00;;
35306;SDS011;21420;52.196;21.416;2023-05-19T18:31:06;18.90;;;14.90;;
35306;SDS011;21420;52.196;21.416;2023-05-19T18:33:34;21.10;;;15.70;;
35306;SDS011;21420;52.196;21.416;2023-05-19T18:36:00;22.10;;;14.60;;
35306;SDS011;21420;52.196;21.416;2023-05-19T18:38:27;21.10;;;15.00;;
35306;SDS011;21420;52.196;21.416;2023-05-19T18:40:54;21.80;;;14.20;;
35306;SDS011;21420;52.196;21.416;2023-05-19T18:43:22;21.50;;;14.40;;
35306;SDS011;21420;52.196;21.416;2023-05-19T18:45:48;22.70;;;15.30;;
35306;SDS011;21420;52.196;21.416;2023-05-19T18:48:15;27.20;;;16.20;;
35306;SDS011;21420;52.196;21.416;2023-05-19T18:50:42;23.50;;;14.80;;
35306;SDS011;21420;52.196;21.416;2023-05-19T18:53:10;24.30;;;15.50;;
35306;SDS011;21420;52.196;21.416;2023-05-19T18:55:37;27.00;;;16.00;;
35306;SDS011;21420;52.196;21.416;2023-05-19T18:58:04;23.40;;;16.00;;
35306;SDS011;21420;52.196;21.416;2023-05-19T19:00:31;27.50;;;16.80;;
35306;SDS011;21420;52.196;21.416;2023-05-19T19:03:03;26.20;;;17.60;;
35306;SDS011;21420;52.196;21.416;2023-05-19T19:05:30;25.70;;;18.00;;
35306;SDS011;21420;52.196;21.416;2023-05-19T19:07:57;21.90;;;16.60;;
35306;SDS011;21420;52.196;21.416;2023-05-19T19:10:24;24.20;;;16.90;;
35306;SDS011;21420;52.196;21.416;2023-05-19T19:12:51;20.20;;;14.40;;
35306;SDS011;21420;52.196;21.416;2023-05-19T19:15:17;19.00;;;13.90;;
35306;SDS011;21420;52.196;21.416;2023-05-19T19:17:44;19.50;;;14.30;;
35306;SDS011;21420;52.196;21.416;2023-05-19T19:20:11;19.30;;;13.60;;
35306;SDS011;21420;52.196;21.416;2023-05-19T19:22:38;21.20;;;15.20;;
35306;SDS011;21420;52.196;21.416;2023-05-19T19:25:05;23.00;;;15.10;;
35306;SDS011;21420;52.196;21.416;2023-05-19T19:27:32;24.10;;;14.70;;
35306;SDS011;21420;52.196;21.416;2023-05-19T19:30:01;32.50;;;23.60;;
35306;SDS011;21420;52.196;21.416;2023-05-19T19:32:27;36.90;;;27.00;;
35306;SDS011;21420;52.196;21.416;2023-05-19T19:34:56;32.20;;;23.80;;
35306;SDS011;21420;52.196;21.416;2023-05-19T19:37:23;25.60;;;17.90;;
35306;SDS011;21420;52.196;21.416;2023-05-19T19:39:50;21.60;;;15.80;;
35306;SDS011;21420;52.196;21.416;2023-05-19T19:42:17;30.00;;;16.10;;
35306;SDS011;21420;52.196;21.416;2023-05-19T19:44:44;28.80;;;17.20;;
35306;SDS011;21420;52.196;21.416;2023-05-19T19:47:11;25.50;;;16.40;;
35306;SDS011;21420;52.196;21.416;2023-05-19T19:49:37;25.60;;;16.00;;
35306;SDS011;21420;52.196;21.416;2023-05-19T19:52:04;42.70;;;23.40;;
35306;SDS011;21420;52.196;21.416;2023-05-19T19:54:31;29.50;;;18.30;;
35306;SDS011;21420;52.196;21.416;2023-05-19T19:56:58;21.90;;;15.60;;
35306;SDS011;21420;52.196;21.416;2023-05-19T19:59:24;20.60;;;13.40;;
35306;SDS011;21420;52.196;21.416;2023-05-19T20:01:52;22.10;;;13.60;;
35306;SDS011;21420;52.196;21.416;2023-05-19T20:04:19;20.90;;;12.70;;
35306;SDS011;21420;52.196;21.416;2023-05-19T20:06:46;22.30;;;12.70;;
35306;SDS011;21420;52.196;21.416;2023-05-19T20:09:13;21.10;;;12.20;;
35306;SDS011;21420;52.196;21.416;2023-05-19T20:11:40;18.40;;;12.30;;
35306;SDS011;21420;52.196;21.416;2023-05-19T20:14:09;17.10;;;13.10;;
35306;SDS011;21420;52.196;21.416;2023-05-19T20:16:36;20.40;;;12.10;;
35306;SDS011;21420;52.196;21.416;2023-05-19T20:19:03;17.70;;;11.50;;
35306;SDS011;21420;52.196;21.416;2023-05-19T20:21:32;19.00;;;13.30;;
35306;SDS011;21420;52.196;21.416;2023-05-19T20:23:58;24.50;;;12.70;;
35306;SDS011;21420;52.196;21.416;2023-05-19T20:26:25;18.10;;;13.10;;
35306;SDS011;21420;52.196;21.416;2023-05-19T20:28:52;18.80;;;12.50;;
35306;SDS011;21420;52.196;21.416;2023-05-19T20:31:19;26.90;;;16.80;;
35306;SDS011;21420;52.196;21.416;2023-05-19T20:33:47;27.30;;;18.30;;
35306;SDS011;21420;52.196;21.416;2023-05-19T20:36:13;25.60;;;18.50;;
35306;SDS011;21420;52.196;21.416;2023-05-19T20:38:40;25.10;;;18.20;;
35306;SDS011;21420;52.196;21.416;2023-05-19T20:41:07;22.90;;;17.30;;
35306;SDS011;21420;52.196;21.416;2023-05-19T20:43:34;23.60;;;17.70;;
35306;SDS011;21420;52.196;21.416;2023-05-19T20:46:01;24.10;;;16.30;;
35306;SDS011;21420;52.196;21.416;2023-05-19T20:48:29;26.80;;;15.60;;
35306;SDS011;21420;52.196;21.416;2023-05-19T20:50:56;20.20;;;14.50;;
35306;SDS011;21420;52.196;21.416;2023-05-19T20:53:23;20.80;;;14.70;;
35306;SDS011;21420;52.196;21.416;2023-05-19T20:55:49;22.60;;;17.70;;
35306;SDS011;21420;52.196;21.416;2023-05-19T20:58:16;25.60;;;16.50;;
35306;SDS011;21420;52.196;21.416;2023-05-19T21:00:43;21.00;;;13.80;;
35306;SDS011;21420;52.196;21.416;2023-05-19T21:03:09;20.70;;;14.70;;
35306;SDS011;21420;52.196;21.416;2023-05-19T21:05:37;20.10;;;14.30;;
35306;SDS011;21420;52.196;21.416;2023-05-19T21:08:03;20.20;;;13.60;;
35306;SDS011;21420;52.196;21.416;2023-05-19T21:10:30;18.70;;;13.90;;
35306;SDS011;21420;52.196;21.416;2023-05-19T21:12:57;20.60;;;14.90;;
35306;SDS011;21420;52.196;21.416;2023-05-19T21:15:24;21.20;;;15.00;;
35306;SDS011;21420;52.196;21.416;2023-05-19T21:17:52;20.60;;;15.30;;
35306;SDS011;21420;52.196;21.416;2023-05-19T21:20:19;23.40;;;15.50;;
35306;SDS011;21420;52.196;21.416;2023-05-19T21:22:46;22.40;;;15.70;;
35306;SDS011;21420;52.196;21.416;2023-05-19T21:25:12;19.90;;;15.60;;
35306;SDS011;21420;52.196;21.416;2023-05-19T21:27:39;24.50;;;15.90;;
35306;SDS011;21420;52.196;21.416;2023-05-19T21:30:06;21.90;;;15.20;;
35306;SDS011;21420;52.196;21.416;2023-05-19T21:32:35;20.80;;;15.20;;
35306;SDS011;21420;52.196;21.416;2023-05-19T21:35:01;21.40;;;15.30;;
35306;SDS011;21420;52.196;21.416;2023-05-19T21:37:28;25.40;;;15.10;;
35306;SDS011;21420;52.196;21.416;2023-05-19T21:39:55;18.50;;;15.40;;
35306;SDS011;21420;52.196;21.416;2023-05-19T21:42:22;17.90;;;14.10;;
35306;SDS011;21420;52.196;21.416;2023-05-19T21:44:48;22.90;;;15.30;;
35306;SDS011;21420;52.196;21.416;2023-05-19T21:47:15;21.50;;;15.70;;
35306;SDS011;21420;52.196;21.416;2023-05-19T21:49:42;17.90;;;14.90;;
35306;SDS011;21420;52.196;21.416;2023-05-19T21:52:08;19.90;;;14.80;;
35306;SDS011;21420;52.196;21.416;2023-05-19T21:54:35;22.40;;;14.60;;
35306;SDS011;21420;52.196;21.416;2023-05-19T21:57:02;20.40;;;14.30;;
35306;SDS011;21420;52.196;21.416;2023-05-19T21:59:29;22.50;;;15.70;;
35306;SDS011;21420;52.196;21.416;2023-05-19T22:01:56;24.00;;;15.60;;
35306;SDS011;21420;52.196;21.416;2023-05-19T22:04:23;24.50;;;14.70;;
35306;SDS011;21420;52.196;21.416;2023-05-19T22:06:50;18.10;;;15.00;;